Time;durP1;ratioP1;P1;durP2;ratioP2;P2;SDS_P1;SDS_P2;PMS_P1;PMS_P2;Temp;Humidity;BMP_temperature;BMP_pressure;BME280_temperature;BME280_humidity;BME280_pressure;Samples;Min_cycle;Max_cycle;Signal;HPM_P1;HPM_P2
2023/01/03 00:01:59;;;;;;;;;;;;;;;20.04;57.25;101714.97;5017075;28;4124;-60
2023/01/03 00:04:26;;;;;;;;;;;;;;;20.00;57.51;101717.59;5022389;28;4155;-60
2023/01/03 00:06:52;;;;;;;;;;;;;;;20.01;57.18;101721.94;5022548;28;4200;-60
2023/01/03 00:09:21;;;;;;;;;;;;;;;20.00;57.21;101720.47;5018602;28;3946;-60
2023/01/03 00:14:34;;;;;;;;;;;;;;;19.99;57.28;101736.19;5024219;28;4128;-60
2023/01/03 00:17:01;;;;;;;;;;;;;;;20.00;57.20;101731.97;5023768;28;4116;-60
2023/01/03 00:19:28;;;;;;;;;;;;;;;19.99;57.00;101738.31;5022884;28;4117;-60
2023/01/03 00:21:54;;;;;;;;;;;;;;;19.98;57.28;101743.34;5022889;28;4098;-60
2023/01/03 00:24:20;;;;;;;;;;;;;;;19.97;57.24;101750.44;5022173;28;4173;-60
2023/01/03 00:26:47;;;;;;;;;;;;;;;19.97;57.06;101744.69;5013455;28;5602;-60
2023/01/03 00:29:13;;;;;;;;;;;;;;;19.96;57.03;101748.22;5024919;28;4382;-60
2023/01/03 00:31:39;;;;;;;;;;;;;;;19.97;57.17;101750.44;5028068;28;4432;-61
2023/01/03 00:34:06;;;;;;;;;;;;;;;19.97;56.88;101749.69;5023108;28;4129;-60
2023/01/03 00:36:32;;;;;;;;;;;;;;;19.95;57.20;101755.31;5024403;28;4096;-60
2023/01/03 00:38:59;;;;;;;;;;;;;;;19.95;57.01;101766.81;5019732;28;4185;-60
2023/01/03 00:41:25;;;;;;;;;;;;;;;19.95;57.05;101766.81;5017664;28;4159;-60
2023/01/03 00:43:51;;;;;;;;;;;;;;;19.94;56.91;101768.22;5021496;28;4030;-60
2023/01/03 00:46:18;;;;;;;;;;;;;;;19.94;57.05;101757.44;5023343;28;4207;-60
2023/01/03 00:48:45;;;;;;;;;;;;;;;19.93;56.96;101772.44;5022590;28;4809;-60
2023/01/03 00:51:15;;;;;;;;;;;;;;;19.91;56.87;101775.97;4999025;28;4153;-61
2023/01/03 00:53:45;;;;;;;;;;;;;;;19.92;57.12;101788.94;5020232;28;5424;-60
2023/01/03 00:56:17;;;;;;;;;;;;;;;19.91;56.88;101787.47;5018990;28;5244;-60
2023/01/03 00:58:43;;;;;;;;;;;;;;;19.90;56.85;101791.69;5025486;28;4149;-60
2023/01/03 01:01:10;;;;;;;;;;;;;;;19.91;56.88;101792.47;5021347;28;5245;-60
2023/01/03 01:03:38;;;;;;;;;;;;;;;19.90;56.94;101808.94;5024358;28;5362;-60
2023/01/03 01:06:14;;;;;;;;;;;;;;;19.93;57.19;101807.72;5019806;28;5250;-60
2023/01/03 01:08:41;;;;;;;;;;;;;;;19.94;56.91;101819.94;5023930;28;4294;-60
2023/01/03 01:11:07;;;;;;;;;;;;;;;19.92;57.35;101822.69;5024380;28;5182;-61
2023/01/03 01:13:33;;;;;;;;;;;;;;;19.91;57.29;101830.56;5018828;28;4277;-60
2023/01/03 01:16:04;;;;;;;;;;;;;;;19.90;57.10;101834.81;5025068;28;3977;-60
2023/01/03 01:18:31;;;;;;;;;;;;;;;19.90;57.13;101843.44;5022109;28;4129;-60
2023/01/03 01:20:58;;;;;;;;;;;;;;;19.88;57.15;101851.91;5023341;28;4110;-60
2023/01/03 01:23:24;;;;;;;;;;;;;;;19.89;57.24;101847.69;5014903;28;4093;-60
2023/01/03 01:25:51;;;;;;;;;;;;;;;19.87;57.20;101856.19;5025183;28;4110;-60
2023/01/03 01:28:17;;;;;;;;;;;;;;;19.86;57.23;101872.69;5018683;28;4177;-60
2023/01/03 01:30:47;;;;;;;;;;;;;;;19.86;57.33;101871.94;5023547;28;3962;-60
2023/01/03 01:33:13;;;;;;;;;;;;;;;19.86;57.20;101866.19;5013398;28;4046;-60
2023/01/03 01:35:40;;;;;;;;;;;;;;;19.85;57.07;101865.41;5024683;28;4005;-60
2023/01/03 01:38:09;;;;;;;;;;;;;;;19.86;57.09;101889.19;5021970;28;5238;-60
2023/01/03 01:40:35;;;;;;;;;;;;;;;19.85;57.13;101876.16;5004063;28;4511;-60
2023/01/03 01:46:05;;;;;;;;;;;;;;;19.83;57.12;101882.53;4978345;28;4191;-60
2023/01/03 01:48:31;;;;;;;;;;;;;;;19.84;57.25;101881.19;5020449;28;3993;-60
2023/01/03 01:50:57;;;;;;;;;;;;;;;19.83;57.08;101881.78;5004032;28;4016;-60
2023/01/03 01:53:26;;;;;;;;;;;;;;;19.83;57.08;101890.41;5022393;28;3982;-60
2023/01/03 01:55:55;;;;;;;;;;;;;;;19.81;57.04;101888.16;4999857;28;5226;-60
2023/01/03 01:58:22;;;;;;;;;;;;;;;19.81;57.21;101893.91;5022609;28;4115;-60
2023/01/03 02:00:48;;;;;;;;;;;;;;;19.81;57.12;101893.16;4994198;28;4348;-60
2023/01/03 02:03:14;;;;;;;;;;;;;;;19.80;57.30;101891.66;5014857;28;3984;-60
2023/01/03 02:05:42;;;;;;;;;;;;;;;19.80;57.04;101900.28;5018963;28;4139;-60
2023/01/03 02:08:08;;;;;;;;;;;;;;;19.80;57.10;101903.16;4995475;28;4160;-60
2023/01/03 02:10:41;;;;;;;;;;;;;;;19.79;57.00;101907.38;5025755;28;4123;-60
2023/01/03 02:13:10;;;;;;;;;;;;;;;19.79;57.21;101902.41;4997778;28;4157;-60
2023/01/03 02:15:39;;;;;;;;;;;;;;;19.78;57.00;101911.63;5023657;28;4042;-60
2023/01/03 02:18:16;;;;;;;;;;;;;;;19.78;57.12;101906.63;4993202;28;5448;-61
2023/01/03 02:20:57;;;;;;;;;;;;;;;19.79;57.03;101916.00;5018878;28;5547;-60
2023/01/03 02:23:30;;;;;;;;;;;;;;;19.77;57.10;101922.38;4998625;28;4169;-60
2023/01/03 02:26:02;;;;;;;;;;;;;;;19.76;56.99;101923.00;5004712;28;3941;-61
2023/01/03 02:28:34;;;;;;;;;;;;;;;19.77;56.87;101915.88;4989534;28;5229;-60
2023/01/03 02:31:11;;;;;;;;;;;;;;;19.78;56.88;101923.13;5013655;28;4163;-60
2023/01/03 02:33:53;;;;;;;;;;;;;;;19.77;56.84;101924.50;5008343;28;4213;-60
2023/01/03 02:36:32;;;;;;;;;;;;;;;19.76;56.87;101926.63;5016553;28;5119;-61
2023/01/03 02:39:21;;;;;;;;;;;;;;;19.76;56.83;101931.63;4995697;28;4204;-60
2023/01/03 02:42:56;;;;;;;;;;;;;;;19.75;56.93;101930.88;5021287;28;4057;-61
2023/01/03 02:45:00;;;;;;;;;;;;;;;19.75;56.82;101941.63;4996972;28;4206;-60
2023/01/03 03:03:26;;;;;;;;;;;;;;;19.72;56.73;101962.97;4987239;28;5342;-60
2023/01/03 03:05:53;;;;;;;;;;;;;;;19.70;56.85;101969.34;5014625;28;4204;-60
2023/01/03 03:08:19;;;;;;;;;;;;;;;19.72;56.54;101974.47;4998268;28;4173;-60
2023/01/03 03:13:35;;;;;;;;;;;;;;;19.71;56.75;101964.34;5017822;28;4091;-60
2023/01/03 03:16:06;;;;;;;;;;;;;;;19.73;56.86;101967.34;5006369;28;4081;-62
2023/01/03 03:18:38;;;;;;;;;;;;;;;19.73;56.77;101964.47;5020136;28;4137;-61
2023/01/03 03:26:38;;;;;;;;;;;;;;;19.70;56.90;101968.56;4993630;28;4172;-60
2023/01/03 03:29:06;;;;;;;;;;;;;;;19.69;56.68;101975.69;5014704;28;4336;-60
2023/01/03 03:31:34;;;;;;;;;;;;;;;19.66;56.67;101969.78;5004907;28;4112;-60
2023/01/03 03:34:06;;;;;;;;;;;;;;;19.66;56.70;101969.03;5020749;28;4177;-60
2023/01/03 03:36:51;;;;;;;;;;;;;;;19.66;56.67;101969.03;5016315;28;4139;-61
2023/01/03 03:45:02;;;;;;;;;;;;;;;19.63;56.67;101981.75;5007671;28;5369;-60
2023/01/03 03:47:47;;;;;;;;;;;;;;;19.64;56.51;101984.00;4999310;28;4117;-61
2023/01/03 03:50:18;;;;;;;;;;;;;;;19.64;56.41;101984.00;4996616;28;4180;-60
2023/01/03 03:52:45;;;;;;;;;;;;;;;19.69;56.15;101984.31;4997776;28;4385;-60
2023/01/03 03:55:15;;;;;;;;;;;;;;;19.70;56.17;101991.56;5021840;28;4034;-60
2023/01/03 03:57:46;;;;;;;;;;;;;;;19.73;56.05;101996.09;4988044;28;4005;-60
2023/01/03 04:00:20;;;;;;;;;;;;;;;19.73;56.36;101996.84;4982256;28;4167;-60
2023/01/03 04:02:46;;;;;;;;;;;;;;;19.75;56.31;102010.59;4997439;28;4157;-60
2023/01/03 04:05:15;;;;;;;;;;;;;;;19.76;56.29;102000.59;4998219;28;4181;-60
2023/01/03 04:07:41;;;;;;;;;;;;;;;19.76;56.35;102006.34;4992860;28;4254;-60
2023/01/03 04:10:08;;;;;;;;;;;;;;;19.75;56.43;102008.47;5020328;28;4185;-61
2023/01/03 04:12:34;;;;;;;;;;;;;;;19.76;56.49;102017.84;4993577;28;4225;-60
2023/01/03 04:15:02;;;;;;;;;;;;;;;19.76;56.67;102017.84;5004388;28;3894;-60
2023/01/03 04:17:28;;;;;;;;;;;;;;;19.77;56.61;102036.59;5019294;28;4149;-60
2023/01/03 04:19:55;;;;;;;;;;;;;;;19.77;56.93;102036.59;5015466;28;4199;-60
2023/01/03 04:22:21;;;;;;;;;;;;;;;19.78;56.75;102038.09;5021546;28;4129;-60
2023/01/03 04:24:48;;;;;;;;;;;;;;;19.79;56.82;102046.13;5016658;28;4194;-60
2023/01/03 04:30:06;;;;;;;;;;;;;;;19.81;56.92;102042.59;5021005;28;6325;-60
2023/01/03 04:32:32;;;;;;;;;;;;;;;19.80;57.28;102041.13;5020173;28;4159;-60
2023/01/03 04:35:01;;;;;;;;;;;;;;;19.81;57.21;102045.47;5019796;28;4184;-60
2023/01/03 04:37:27;;;;;;;;;;;;;;;19.89;56.67;102048.91;5022649;28;4031;-60
2023/01/03 04:39:54;;;;;;;;;;;;;;;19.81;56.74;102042.59;5025264;28;4319;-60
2023/01/03 04:45:08;;;;;;;;;;;;;;;19.82;56.45;102049.88;5021728;28;4211;-60
2023/01/03 04:47:35;;;;;;;;;;;;;;;19.82;57.02;102062.13;5024210;28;5424;-60
2023/01/03 04:50:01;;;;;;;;;;;;;;;19.84;57.02;102064.38;5022698;28;5223;-60
2023/01/03 04:52:27;;;;;;;;;;;;;;;19.83;57.26;102066.50;5025298;28;4288;-60
2023/01/03 04:54:54;;;;;;;;;;;;;;;19.85;57.44;102072.38;5020167;28;5161;-60
2023/01/03 04:57:20;;;;;;;;;;;;;;;19.85;57.93;102083.13;5025785;28;4302;-60
2023/01/03 04:59:46;;;;;;;;;;;;;;;19.85;58.23;102083.88;5021304;28;4240;-60
2023/01/03 05:02:16;;;;;;;;;;;;;;;19.86;57.85;102087.53;5019487;28;3981;-60
2023/01/03 05:04:42;;;;;;;;;;;;;;;19.85;57.71;102083.13;5017416;28;6481;-60
2023/01/03 05:07:09;;;;;;;;;;;;;;;19.86;58.01;102093.28;5014929;28;4215;-60
2023/01/03 05:09:38;;;;;;;;;;;;;;;19.84;57.95;102098.88;5023064;28;4092;-60
2023/01/03 05:12:04;;;;;;;;;;;;;;;19.83;57.80;102098.13;5024393;28;4124;-60
2023/01/03 05:14:31;;;;;;;;;;;;;;;19.84;57.68;102107.50;5023184;28;5339;-60
2023/01/03 05:16:57;;;;;;;;;;;;;;;19.84;57.78;102104.63;5018135;28;4061;-60
2023/01/03 05:19:24;;;;;;;;;;;;;;;19.83;57.70;102106.00;5015987;28;5272;-61
2023/01/03 05:27:20;;;;;;;;;;;;;;;19.84;57.63;102111.13;5019287;28;4094;-60
2023/01/03 05:29:48;;;;;;;;;;;;;;;19.86;57.80;102122.03;5015791;28;4138;-60
2023/01/03 05:32:14;;;;;;;;;;;;;;;19.86;57.97;102122.03;4998050;28;4182;-61
2023/01/03 05:34:41;;;;;;;;;;;;;;;19.86;58.16;102122.03;5016396;28;4045;-60
2023/01/03 05:37:07;;;;;;;;;;;;;;;19.88;58.26;102127.88;5019966;28;4926;-60
2023/01/03 05:39:33;;;;;;;;;;;;;;;19.89;58.35;102129.41;5024448;28;4129;-60
2023/01/03 05:42:00;;;;;;;;;;;;;;;19.89;57.96;102126.53;5017945;28;5088;-60
2023/01/03 05:44:26;;;;;;;;;;;;;;;19.88;58.21;102122.13;5020028;28;4011;-60
2023/01/03 05:46:53;;;;;;;;;;;;;;;19.88;58.27;102125.00;5009790;28;4180;-60
2023/01/03 05:49:19;;;;;;;;;;;;;;;19.87;58.24;102130.03;5016838;28;4230;-60
2023/01/03 05:51:45;;;;;;;;;;;;;;;19.86;58.05;102124.91;5022407;28;4091;-61
2023/01/03 05:54:13;;;;;;;;;;;;;;;19.87;57.60;102120.66;5023569;28;5316;-60
2023/01/03 05:56:39;;;;;;;;;;;;;;;19.89;57.31;102129.41;5017570;28;4205;-61
2023/01/03 05:59:08;;;;;;;;;;;;;;;19.88;57.34;102134.41;5021487;28;4188;-60
2023/01/03 06:01:35;;;;;;;;;;;;;;;19.92;56.97;102133.19;5021134;28;4219;-60
2023/01/03 06:04:01;;;;;;;;;;;;;;;19.96;57.12;102128.44;5016344;28;5212;-64
2023/01/03 06:06:28;;;;;;;;;;;;;;;19.94;57.49;102131.19;5015312;28;4244;-72
2023/01/03 06:08:54;;;;;;;;;;;;;;;19.87;55.57;102138.63;5018506;28;4944;-67
2023/01/03 06:11:20;;;;;;;;;;;;;;;16.88;50.71;102132.84;5018527;28;5279;-66
2023/01/03 06:13:48;;;;;;;;;;;;;;;15.41;49.70;102150.59;5017698;28;3951;-67
2023/01/03 06:19:07;;;;;;;;;;;;;;;15.19;48.62;102140.09;5023062;28;3974;-69
2023/01/03 06:21:33;;;;;;;;;;;;;;;15.06;48.75;102150.44;5018664;28;4364;-69
2023/01/03 06:24:02;;;;;;;;;;;;;;;16.90;47.04;102142.34;4995721;28;4055;-66
2023/01/03 06:26:29;;;;;;;;;;;;;;;18.05;47.23;102142.72;5012301;28;4124;-68
2023/01/03 06:29:16;;;;;;;;;;;;;;;18.49;47.13;102141.72;5020670;28;4046;-68
2023/01/03 06:31:42;;;;;;;;;;;;;;;18.74;48.03;102141.41;5021232;28;4130;-68
2023/01/03 06:34:09;;;;;;;;;;;;;;;18.86;48.01;102137.94;5020387;28;4147;-69
2023/01/03 06:36:36;;;;;;;;;;;;;;;18.99;48.57;102141.09;5021656;28;4581;-70
2023/01/03 06:39:05;;;;;;;;;;;;;;;19.08;50.10;102141.66;5021950;28;4179;-70
2023/01/03 06:41:31;;;;;;;;;;;;;;;19.10;51.11;102156.91;5023569;28;5361;-69
2023/01/03 06:43:58;;;;;;;;;;;;;;;18.70;49.41;102154.69;5022778;28;5321;-70
2023/01/03 06:54:43;;;;;;;;;;;;;;;19.24;52.28;102163.69;5007850;28;4032;-67
2023/01/03 06:57:09;;;;;;;;;;;;;;;19.29;53.05;102184.06;5023861;28;6447;-68
2023/01/03 06:59:52;;;;;;;;;;;;;;;19.32;53.10;102171.38;5022072;28;3967;-68
2023/01/03 07:02:18;;;;;;;;;;;;;;;19.34;53.30;102180.16;5020681;28;4126;-68
2023/01/03 07:04:48;;;;;;;;;;;;;;;19.37;53.44;102184.66;5020384;28;4185;-67
2023/01/03 07:07:14;;;;;;;;;;;;;;;19.53;52.85;102180.06;5005622;28;5335;-72
2023/01/03 07:09:59;;;;;;;;;;;;;;;19.62;53.86;102182.16;5007005;28;4145;-70
2023/01/03 07:15:19;;;;;;;;;;;;;;;19.75;53.58;102200.28;5019676;28;4066;-73
2023/01/03 07:17:46;;;;;;;;;;;;;;;19.77;53.58;102197.53;5023714;28;5190;-71
2023/01/03 07:20:15;;;;;;;;;;;;;;;19.81;53.62;102203.56;5026595;28;4163;-71
2023/01/03 07:22:41;;;;;;;;;;;;;;;19.83;53.68;102209.47;5026562;28;4133;-72
2023/01/03 07:25:08;;;;;;;;;;;;;;;19.92;53.36;102207.94;5022348;28;4093;-69
2023/01/03 07:27:34;;;;;;;;;;;;;;;19.99;53.36;102212.72;5019955;28;4260;-70
2023/01/03 07:30:00;;;;;;;;;;;;;;;20.00;53.28;102212.13;5024183;28;4041;-69
2023/01/03 07:32:27;;;;;;;;;;;;;;;20.02;53.32;102217.25;5024313;28;4340;-70
2023/01/03 07:34:53;;;;;;;;;;;;;;;20.08;52.94;102221.28;5026007;28;5226;-69
2023/01/03 07:37:19;;;;;;;;;;;;;;;20.15;52.73;102231.09;5025612;28;5358;-72
2023/01/03 07:39:46;;;;;;;;;;;;;;;20.14;52.89;102223.09;5022531;28;4175;-72
2023/01/03 07:44:57;;;;;;;;;;;;;;;20.11;52.95;102230.06;5029091;28;4197;-66
2023/01/03 07:47:23;;;;;;;;;;;;;;;20.09;52.96;102228.56;5028233;28;4014;-67
2023/01/03 07:49:49;;;;;;;;;;;;;;;20.08;52.94;102227.06;5027040;28;3997;-70
2023/01/03 07:52:16;;;;;;;;;;;;;;;20.16;53.16;102224.00;5021621;28;4120;-72
2023/01/03 07:54:43;;;;;;;;;;;;;;;20.49;52.16;102232.72;5017145;28;4730;-72
2023/01/03 07:57:09;;;;;;;;;;;;;;;20.59;51.98;102234.78;5023407;28;4394;-74
2023/01/03 07:59:35;;;;;;;;;;;;;;;20.66;51.99;102239.56;5025777;28;3999;-72
2023/01/03 08:02:02;;;;;;;;;;;;;;;20.57;52.08;102246.16;5023679;28;4230;-68
2023/01/03 08:04:28;;;;;;;;;;;;;;;20.53;52.27;102245.88;5025208;28;4114;-68
2023/01/03 08:06:57;;;;;;;;;;;;;;;20.48;52.15;102254.22;5025050;28;3922;-70
2023/01/03 08:14:54;;;;;;;;;;;;;;;20.46;52.11;102259.09;5029298;28;4470;-70
2023/01/03 08:17:20;;;;;;;;;;;;;;;20.47;51.97;102258.47;5028297;28;4311;-71
2023/01/03 08:19:46;;;;;;;;;;;;;;;20.50;51.93;102268.75;5028984;28;4189;-66
2023/01/03 08:22:13;;;;;;;;;;;;;;;20.67;51.51;102267.75;5027521;28;4675;-76
2023/01/03 08:24:39;;;;;;;;;;;;;;;20.67;51.65;102267.75;5031761;28;4334;-76
2023/01/03 08:27:05;;;;;;;;;;;;;;;20.66;51.60;102265.47;5032172;28;3954;-77
2023/01/03 08:29:35;;;;;;;;;;;;;;;20.94;51.39;102266.66;5027601;28;4064;-75
2023/01/03 08:32:01;;;;;;;;;;;;;;;20.79;50.94;102267.06;5038250;28;4054;-77
2023/01/03 08:34:35;;;;;;;;;;;;;;;20.75;51.18;102284.81;5019573;28;4190;-72
2023/01/03 08:37:03;;;;;;;;;;;;;;;20.80;51.35;102280.84;5029371;28;4084;-74
2023/01/03 08:39:34;;;;;;;;;;;;;;;20.86;51.29;102278.38;5033383;28;3910;-72
2023/01/03 08:42:01;;;;;;;;;;;;;;;20.93;51.34;102288.91;5033074;28;4202;-73
2023/01/03 08:44:27;;;;;;;;;;;;;;;20.95;51.00;102290.44;5011649;28;4072;-73
2023/01/03 08:46:54;;;;;;;;;;;;;;;21.00;51.80;102289.34;5017762;28;4124;-72
2023/01/03 08:49:23;;;;;;;;;;;;;;;21.27;50.75;102280.31;5027917;28;3946;-71
2023/01/03 08:51:50;;;;;;;;;;;;;;;21.34;50.31;102282.19;5025606;28;4257;-72
2023/01/03 08:54:16;;;;;;;;;;;;;;;21.31;49.97;102281.31;5027977;28;4117;-72
2023/01/03 08:56:42;;;;;;;;;;;;;;;21.03;50.54;102285.22;5026376;28;4029;-73
2023/01/03 09:02:06;;;;;;;;;;;;;;;20.89;51.10;102294.44;5027919;28;5454;-74
2023/01/03 09:04:33;;;;;;;;;;;;;;;20.88;51.03;102298.66;5028278;28;4137;-74
2023/01/03 09:07:00;;;;;;;;;;;;;;;20.94;50.99;102301.22;5002908;28;4310;-72
2023/01/03 09:09:35;;;;;;;;;;;;;;;21.20;51.14;102304.31;5027100;28;4051;-73
2023/01/03 09:16:33;;;;;;;;;;;;;;;21.39;49.87;102314.91;4982966;28;3954;-73
2023/01/03 09:19:08;;;;;;;;;;;;;;;21.11;50.66;102323.19;5011112;28;4131;-72
2023/01/03 09:21:43;;;;;;;;;;;;;;;21.10;50.77;102324.59;4986354;28;4057;-72
2023/01/03 09:24:10;;;;;;;;;;;;;;;21.04;50.46;102324.91;5016514;28;4468;-74
2023/01/03 09:29:33;;;;;;;;;;;;;;;21.27;50.95;102332.91;5018795;28;4105;-73
2023/01/03 09:32:23;;;;;;;;;;;;;;;21.18;50.41;102330.13;5018125;28;4528;-74
2023/01/03 09:34:57;;;;;;;;;;;;;;;21.12;50.22;102322.59;5026676;28;5384;-72
2023/01/03 09:37:23;;;;;;;;;;;;;;;21.12;50.54;102318.97;5024349;28;5289;-70
2023/01/03 09:39:50;;;;;;;;;;;;;;;21.26;50.87;102319.88;5018003;28;4187;-74
2023/01/03 09:45:11;;;;;;;;;;;;;;;21.47;49.53;102327.75;4984959;28;4254;-71
2023/01/03 09:47:38;;;;;;;;;;;;;;;21.47;49.62;102332.78;5004300;28;5276;-74
2023/01/03 09:50:05;;;;;;;;;;;;;;;21.43;49.40;102326.75;5005874;28;4198;-73
2023/01/03 10:04:35;;;;;;;;;;;;;;;21.51;49.71;102338.81;5024498;28;4120;-71
2023/01/03 10:07:20;;;;;;;;;;;;;;;21.48;49.37;102329.25;5009584;28;4196;-76
2023/01/03 10:09:49;;;;;;;;;;;;;;;21.38;49.63;102331.47;5006477;28;4057;-72
2023/01/03 10:12:37;;;;;;;;;;;;;;;21.29;49.82;102335.94;5028916;28;4232;-71
2023/01/03 10:15:14;;;;;;;;;;;;;;;21.21;50.21;102346.94;4999823;28;5369;-68
2023/01/03 10:17:49;;;;;;;;;;;;;;;21.20;50.24;102342.53;5001186;28;4520;-71
2023/01/03 10:20:22;;;;;;;;;;;;;;;21.32;50.25;102337.56;5024325;28;4148;-75
2023/01/03 10:23:29;;;;;;;;;;;;;;;21.11;50.12;102343.34;4998289;28;4596;-70
2023/01/03 10:25:55;;;;;;;;;;;;;;;20.96;51.11;102338.00;5019373;28;4193;-71
2023/01/03 10:28:24;;;;;;;;;;;;;;;21.12;50.49;102339.13;5016123;28;4359;-70
2023/01/03 10:31:02;;;;;;;;;;;;;;;21.02;50.25;102341.31;5024934;28;4270;-69
2023/01/03 10:33:35;;;;;;;;;;;;;;;20.93;50.63;102340.75;5021209;28;4154;-70
2023/01/03 10:36:01;;;;;;;;;;;;;;;20.93;50.77;102340.00;5020196;28;4336;-72
2023/01/03 10:38:28;;;;;;;;;;;;;;;20.96;50.73;102338.00;5020182;28;4227;-69
2023/01/03 10:40:56;;;;;;;;;;;;;;;20.93;50.85;102335.00;5023862;28;4113;-68
2023/01/03 10:43:32;;;;;;;;;;;;;;;20.92;50.74;102330.63;5014094;28;5273;-72
2023/01/03 10:46:02;;;;;;;;;;;;;;;20.90;50.92;102347.75;5016136;28;4228;-72
2023/01/03 10:48:45;;;;;;;;;;;;;;;20.88;50.48;102335.34;5021255;28;5289;-74
2023/01/03 10:51:34;;;;;;;;;;;;;;;21.14;50.63;102342.13;5024115;28;4079;-74
2023/01/03 10:54:11;;;;;;;;;;;;;;;21.15;50.38;102337.88;4997953;28;6495;-73
2023/01/03 10:56:37;;;;;;;;;;;;;;;21.14;50.35;102342.13;4998495;28;4087;-74
2023/01/03 10:59:16;;;;;;;;;;;;;;;21.25;50.18;102341.41;5021840;28;4012;-75
2023/01/03 11:01:57;;;;;;;;;;;;;;;21.29;49.92;102335.94;5025908;28;4083;-72
2023/01/03 11:04:24;;;;;;;;;;;;;;;21.31;50.20;102338.94;5010737;28;4087;-75
2023/01/03 11:07:08;;;;;;;;;;;;;;;20.97;50.77;102345.28;5015669;28;4135;-73
2023/01/03 11:09:54;;;;;;;;;;;;;;;20.84;49.66;102337.94;5018243;28;5346;-73
2023/01/03 11:12:28;;;;;;;;;;;;;;;20.76;50.21;102341.03;5013577;28;4167;-74
2023/01/03 11:14:55;;;;;;;;;;;;;;;20.56;50.16;102334.63;5017827;28;3973;-73
2023/01/03 11:17:24;;;;;;;;;;;;;;;20.65;50.60;102333.81;5018432;28;4068;-75
2023/01/03 11:19:50;;;;;;;;;;;;;;;21.26;50.52;102347.94;5020996;28;4020;-75
2023/01/03 11:22:24;;;;;;;;;;;;;;;21.47;50.09;102338.53;5020206;28;4142;-73
2023/01/03 11:25:10;;;;;;;;;;;;;;;21.59;49.64;102342.22;4999348;28;3959;-77
2023/01/03 11:27:52;;;;;;;;;;;;;;;21.68;49.69;102335.59;5031011;28;4057;-78
2023/01/03 11:30:27;;;;;;;;;;;;;;;21.73;49.39;102334.47;5021106;28;4456;-79
2023/01/03 11:33:14;;;;;;;;;;;;;;;21.80;49.39;102337.75;5022767;28;4142;-74
2023/01/03 11:35:43;;;;;;;;;;;;;;;21.84;49.65;102340.91;5012880;28;4224;-75
2023/01/03 11:38:15;;;;;;;;;;;;;;;21.83;49.78;102339.38;5016340;28;4112;-79
2023/01/03 11:40:47;;;;;;;;;;;;;;;21.88;49.75;102332.50;5021379;28;4591;-75
2023/01/03 11:43:18;;;;;;;;;;;;;;;21.86;49.53;102321.59;5015226;28;4993;-76
2023/01/03 11:45:44;;;;;;;;;;;;;;;21.81;50.13;102324.84;4997708;28;3959;-70
2023/01/03 11:48:27;;;;;;;;;;;;;;;21.69;50.42;102322.69;5019821;28;4145;-70
2023/01/03 11:50:57;;;;;;;;;;;;;;;21.64;50.83;102317.28;5003248;28;4088;-70
2023/01/03 11:53:24;;;;;;;;;;;;;;;21.62;50.73;102317.88;5008391;28;4318;-71
2023/01/03 11:56:08;;;;;;;;;;;;;;;21.63;50.76;102322.28;5021715;28;4202;-70
2023/01/03 11:58:41;;;;;;;;;;;;;;;21.63;51.06;102313.66;5003395;28;4547;-70
2023/01/03 12:01:19;;;;;;;;;;;;;;;21.72;50.91;102323.56;5001009;28;4722;-76
2023/01/03 12:03:48;;;;;;;;;;;;;;;21.76;50.46;102329.56;5024943;28;4192;-72
2023/01/03 12:06:23;;;;;;;;;;;;;;;21.71;50.69;102330.69;5021242;28;4187;-72
2023/01/03 12:09:11;;;;;;;;;;;;;;;21.83;50.82;102333.59;4995407;28;4132;-79
2023/01/03 12:11:58;;;;;;;;;;;;;;;21.90;50.68;102332.66;5022962;28;4315;-72
2023/01/03 12:14:30;;;;;;;;;;;;;;;21.79;50.90;102328.34;4998250;28;4877;-78
2023/01/03 12:17:02;;;;;;;;;;;;;;;21.86;51.24;102329.50;5018923;28;4124;-80
2023/01/03 12:19:30;;;;;;;;;;;;;;;22.06;50.63;102327.91;4997908;28;4136;-77
2023/01/03 12:22:10;;;;;;;;;;;;;;;22.14;50.36;102333.41;5001835;28;4080;-78
2023/01/03 12:24:44;;;;;;;;;;;;;;;21.93;50.47;102323.47;5000089;28;4040;-80
2023/01/03 12:27:13;;;;;;;;;;;;;;;21.78;50.90;102326.09;5022939;28;3947;-75
2023/01/03 12:29:45;;;;;;;;;;;;;;;21.73;51.31;102331.59;5027377;28;4027;-78
2023/01/03 12:32:16;;;;;;;;;;;;;;;21.73;51.21;102320.06;5018540;28;4349;-84
2023/01/03 12:34:52;;;;;;;;;;;;;;;21.66;51.49;102321.03;5000165;28;4316;-82
2023/01/03 12:37:22;;;;;;;;;;;;;;;21.62;51.66;102317.88;5006964;28;4198;-81
2023/01/03 12:39:53;;;;;;;;;;;;;;;21.63;51.55;102325.19;5032402;28;4545;-70
2023/01/03 12:42:20;;;;;;;;;;;;;;;21.79;51.57;102322.59;5021070;28;4364;-70
2023/01/03 12:44:47;;;;;;;;;;;;;;;21.82;51.60;102326.34;5023745;28;5206;-71
2023/01/03 12:47:42;;;;;;;;;;;;;;;21.73;51.87;102325.81;4999351;28;4288;-71
2023/01/03 12:50:24;;;;;;;;;;;;;;;21.72;51.73;102323.56;5005721;28;5355;-71
2023/01/03 12:53:11;;;;;;;;;;;;;;;21.70;51.73;102327.06;5006143;28;5185;-71
2023/01/03 12:55:56;;;;;;;;;;;;;;;21.72;52.19;102330.09;5024051;28;4332;-71
2023/01/03 12:58:25;;;;;;;;;;;;;;;21.74;51.87;102315.06;5024798;28;4164;-72
2023/01/03 13:00:56;;;;;;;;;;;;;;;21.91;51.94;102325.47;4995483;28;4832;-69
2023/01/03 13:03:25;;;;;;;;;;;;;;;21.99;51.64;102328.91;5021200;28;4149;-75
2023/01/03 13:05:56;;;;;;;;;;;;;;;21.87;51.64;102316.56;5021700;28;4165;-82
2023/01/03 13:08:28;;;;;;;;;;;;;;;21.78;52.12;102314.53;4998335;28;4552;-79
2023/01/03 13:11:02;;;;;;;;;;;;;;;21.76;52.11;102303.63;5025651;28;3959;-81
2023/01/03 13:13:29;;;;;;;;;;;;;;;21.75;52.19;102300.00;5001657;28;3980;-81
2023/01/03 13:15:55;;;;;;;;;;;;;;;21.71;52.37;102296.84;5025963;28;4041;-77
2023/01/03 13:18:21;;;;;;;;;;;;;;;21.71;52.50;102296.84;5006635;28;6240;-79
2023/01/03 13:20:51;;;;;;;;;;;;;;;21.70;52.61;102298.25;5031360;28;4453;-78
2023/01/03 13:23:34;;;;;;;;;;;;;;;21.71;52.40;102293.22;5027946;28;4690;-80
2023/01/03 13:26:09;;;;;;;;;;;;;;;21.65;52.37;102296.47;5006940;28;4074;-73
2023/01/03 13:28:35;;;;;;;;;;;;;;;21.30;51.27;102291.34;5014042;28;4364;-76
2023/01/03 13:31:14;;;;;;;;;;;;;;;21.16;51.56;102298.28;5017579;28;4159;-77
2023/01/03 13:33:41;;;;;;;;;;;;;;;21.14;51.80;102296.03;5011890;28;5281;-85
2023/01/03 13:36:09;;;;;;;;;;;;;;;21.15;51.80;102297.53;5011649;28;4588;-81
2023/01/03 13:38:36;;;;;;;;;;;;;;;21.14;51.78;102298.91;5015058;28;4175;-86
2023/01/03 13:41:08;;;;;;;;;;;;;;;21.12;52.01;102299.53;5000972;28;4209;-83
2023/01/03 13:43:45;;;;;;;;;;;;;;;21.11;51.90;102294.38;5016753;28;4175;-80
2023/01/03 13:46:18;;;;;;;;;;;;;;;21.10;51.78;102290.00;4997880;28;4355;-76
2023/01/03 13:48:52;;;;;;;;;;;;;;;21.10;51.91;102287.13;5019951;28;4012;-74
2023/01/03 13:51:21;;;;;;;;;;;;;;;21.12;51.84;102281.50;4999590;28;6266;-78
2023/01/03 13:53:51;;;;;;;;;;;;;;;21.05;51.87;102283.22;5017186;28;4136;-75
2023/01/03 13:56:31;;;;;;;;;;;;;;;21.17;52.43;102286.16;5018006;28;4577;-73
2023/01/03 13:59:01;;;;;;;;;;;;;;;21.12;51.79;102295.91;5008553;28;4144;-70
2023/01/03 14:01:34;;;;;;;;;;;;;;;21.09;51.61;102294.25;5015204;28;4133;-75
2023/01/03 14:04:19;;;;;;;;;;;;;;;21.24;52.19;102299.59;5018623;28;5442;-67
2023/01/03 14:07:04;;;;;;;;;;;;;;;21.31;51.89;102307.25;5018421;28;4994;-73
2023/01/03 14:09:34;;;;;;;;;;;;;;;21.34;52.40;102297.34;5012885;28;4230;-72
2023/01/03 14:12:09;;;;;;;;;;;;;;;21.40;52.25;102304.91;5022280;28;4102;-70
2023/01/03 14:14:39;;;;;;;;;;;;;;;21.37;52.44;102303.25;5009181;28;4148;-77
2023/01/03 14:17:12;;;;;;;;;;;;;;;21.53;52.71;102295.69;4995690;28;4249;-74
2023/01/03 14:19:38;;;;;;;;;;;;;;;21.40;52.85;102296.28;4989410;28;4289;-80
2023/01/03 14:22:11;;;;;;;;;;;;;;;21.29;53.58;102304.22;5013107;28;3967;-74
2023/01/03 14:24:56;;;;;;;;;;;;;;;21.25;54.27;102300.34;4997425;28;5460;-77
2023/01/03 14:27:34;;;;;;;;;;;;;;;21.22;54.47;102301.59;5015462;28;4278;-78
2023/01/03 14:30:01;;;;;;;;;;;;;;;21.20;54.68;102299.31;5016403;28;4556;-77
2023/01/03 14:32:28;;;;;;;;;;;;;;;21.20;54.42;102302.19;5015630;28;4171;-77
2023/01/03 14:35:00;;;;;;;;;;;;;;;21.16;54.53;102304.81;4995890;28;4168;-77
2023/01/03 14:37:26;;;;;;;;;;;;;;;21.16;54.74;102301.91;5014504;28;4189;-79
2023/01/03 14:40:38;;;;;;;;;;;;;;;21.17;54.54;102306.31;5018258;28;4961;-79